Terminal Aerodrome Forecast
Issued by NWS

Home | Current Version | Previous Version | Text Only | Print | Product List | Glossary On
Versions: 1 2 3 4 5 6 7 8 9 10 11 12 13 14 15 16 17
000
FTUS45 KRIW 241120
TAFBPI
TAF
KBPI 241120Z 2412/2512 VRB05KT P6SM VCFG SCT003 SCT050
     FM241600 VRB05KT P6SM SCT200
     FM242200 VRB05KT P6SM SCT080 BKN200
     FM250500 VRB04KT P6SM BKN080
     FM251100 VRB04KT P6SM VCSH SCT030 BKN050=

USA.gov is the U.S. government's official web portal to all federal, state and local government web resources and services.